createdAt,value
2018-04-10T00:02:19.960Z,89.40
2018-04-10T00:05:23.260Z,90.10
2018-04-10T00:08:26.576Z,90.00
2018-04-10T00:11:29.881Z,90.30
2018-04-10T00:14:33.968Z,90.20
2018-04-10T00:17:37.288Z,90.20
2018-04-10T00:20:40.606Z,90.20
2018-04-10T00:23:43.932Z,90.30
2018-04-10T00:26:47.248Z,90.20
2018-04-10T00:29:50.560Z,90.50
2018-04-10T00:32:53.861Z,90.50
2018-04-10T00:35:57.184Z,90.60
2018-04-10T00:39:01.289Z,90.80
2018-04-10T00:42:05.357Z,91.00
2018-04-10T00:45:08.680Z,90.90
2018-04-10T00:48:11.984Z,91.10
2018-04-10T00:51:16.077Z,91.10
2018-04-10T00:54:19.384Z,91.10
2018-04-10T00:57:22.712Z,91.30
2018-04-10T01:00:26.781Z,91.60
2018-04-10T01:03:30.101Z,91.60
2018-04-10T01:06:33.421Z,91.60
2018-04-10T01:09:37.484Z,91.70
2018-04-10T01:12:40.800Z,91.70
2018-04-10T01:15:44.107Z,91.80
2018-04-10T01:18:47.415Z,91.80
2018-04-10T01:21:51.497Z,91.80
2018-04-10T01:24:54.793Z,91.80
2018-04-10T01:27:58.108Z,91.70
2018-04-10T01:31:01.430Z,91.30
2018-04-10T01:34:05.512Z,91.30
2018-04-10T01:37:08.832Z,91.30
2018-04-10T01:40:12.895Z,91.40
2018-04-10T01:43:16.212Z,91.40
2018-04-10T01:46:19.511Z,91.40
2018-04-10T01:49:22.834Z,91.30
2018-04-10T01:52:26.898Z,91.60
2018-04-10T01:55:30.223Z,91.60
2018-04-10T01:58:33.512Z,91.80
2018-04-10T02:01:36.832Z,91.70
2018-04-10T02:04:40.901Z,92.00
2018-04-10T02:07:44.224Z,91.90
2018-04-10T02:10:47.516Z,91.90
2018-04-10T02:13:50.833Z,92.00
2018-04-10T02:16:54.932Z,91.80
2018-04-10T02:19:58.241Z,91.80
2018-04-10T02:23:01.557Z,92.00
2018-04-10T02:26:05.636Z,92.10
2018-04-10T02:29:08.958Z,92.00
2018-04-10T02:32:13.024Z,92.00
2018-04-10T02:35:16.336Z,91.90
2018-04-10T02:38:19.644Z,92.00
2018-04-10T02:41:22.973Z,91.90
2018-04-10T02:44:27.038Z,91.70
2018-04-10T02:47:30.364Z,91.70
2018-04-10T02:50:33.669Z,91.60
2018-04-10T02:53:37.764Z,91.70
2018-04-10T02:56:41.066Z,91.70
2018-04-10T02:59:44.380Z,91.40
2018-04-10T03:02:48.448Z,91.30
2018-04-10T03:05:51.771Z,91.30
2018-04-10T03:08:55.097Z,91.30
2018-04-10T03:11:59.212Z,91.60
2018-04-10T03:15:02.518Z,91.60
2018-04-10T03:18:05.840Z,91.30
2018-04-10T03:21:09.174Z,91.20
2018-04-10T03:24:12.480Z,91.10
2018-04-10T03:27:16.582Z,91.40
2018-04-10T03:30:19.884Z,91.40
2018-04-10T03:33:23.221Z,91.30
2018-04-10T03:36:26.527Z,91.20
2018-04-10T03:39:29.848Z,91.40
2018-04-10T03:42:33.144Z,91.50
2018-04-10T03:45:36.455Z,91.50
2018-04-10T03:48:39.777Z,91.60
2018-04-10T03:51:43.850Z,91.50
2018-04-10T03:54:47.168Z,91.40
2018-04-10T03:57:50.469Z,91.40
2018-04-10T04:00:53.784Z,91.70
2018-04-10T04:03:57.863Z,91.80
2018-04-10T04:07:01.177Z,91.80
2018-04-10T04:10:04.498Z,91.90
2018-04-10T04:13:08.580Z,92.20
2018-04-10T04:16:29.660Z,92.20
2018-04-10T04:19:50.436Z,92.30
2018-04-10T04:22:53.773Z,92.30
2018-04-10T04:25:57.912Z,92.20
2018-04-10T04:29:01.234Z,92.50
2018-04-10T04:32:05.317Z,92.60
2018-04-10T04:35:08.632Z,92.60
2018-04-10T04:38:11.944Z,92.70
2018-04-10T04:41:16.003Z,92.90
2018-04-10T04:44:19.324Z,92.90
2018-04-10T04:47:22.648Z,92.70
2018-04-10T04:50:26.753Z,93.10
2018-04-10T04:53:30.840Z,93.40
2018-04-10T04:56:34.160Z,93.40
2018-04-10T04:59:37.477Z,93.40
2018-04-10T05:02:41.560Z,93.60
2018-04-10T05:05:44.866Z,93.60
2018-04-10T05:08:48.187Z,93.70
2018-04-10T05:11:51.488Z,93.90
2018-04-10T05:14:54.808Z,94.00
2018-04-10T05:17:58.111Z,94.00
2018-04-10T05:21:01.425Z,94.00
2018-04-10T05:24:04.749Z,94.00
2018-04-10T05:27:08.812Z,94.30
2018-04-10T05:30:12.128Z,94.30
2018-04-10T05:33:15.429Z,94.40
2018-04-10T05:36:18.768Z,94.50
2018-04-10T05:39:22.836Z,94.60
2018-04-10T05:42:26.165Z,94.60
2018-04-10T05:45:30.229Z,94.70
2018-04-10T05:48:33.547Z,94.70
2018-04-10T05:51:36.848Z,94.70
2018-04-10T05:54:40.177Z,94.70
2018-04-10T05:57:44.244Z,94.80
2018-04-10T06:00:47.617Z,94.80
2018-04-10T06:03:50.912Z,94.90
2018-04-10T06:06:54.233Z,94.80
2018-04-10T06:09:57.557Z,94.80
2018-04-10T06:13:00.865Z,94.70
2018-04-10T06:16:04.969Z,94.70
2018-04-10T06:19:08.272Z,94.70
2018-04-10T06:22:11.590Z,94.70
2018-04-10T06:25:14.923Z,94.70
2018-04-10T06:28:18.221Z,94.30
2018-04-10T06:31:21.539Z,94.20
2018-04-10T06:34:24.836Z,94.00
2018-04-10T06:37:28.194Z,94.00
2018-04-10T06:40:32.245Z,93.60
2018-04-10T06:43:35.569Z,93.60
2018-04-10T06:46:39.680Z,93.50
2018-04-10T06:49:42.980Z,93.50
2018-04-10T06:52:47.061Z,93.20
2018-04-10T06:55:50.361Z,93.20
2018-04-10T06:58:53.685Z,92.50
2018-04-10T07:01:57.780Z,92.20
2018-04-10T07:05:01.080Z,92.20
2018-04-10T07:08:04.400Z,92.60
2018-04-10T07:11:08.491Z,92.00
2018-04-10T07:14:11.817Z,92.50
2018-04-10T07:17:15.885Z,91.90
2018-04-10T07:20:19.214Z,91.90
2018-04-10T07:23:22.533Z,91.80
2018-04-10T07:26:25.856Z,91.80
2018-04-10T07:29:29.169Z,91.40
2018-04-10T07:32:32.506Z,91.60
2018-04-10T07:35:36.581Z,91.20
2018-04-10T07:38:39.929Z,91.30
2018-04-10T07:41:43.235Z,91.20
2018-04-10T07:44:46.580Z,91.20
2018-04-10T07:47:49.890Z,91.40
2018-04-10T07:50:53.216Z,91.30
2018-04-10T07:53:57.294Z,91.10
2018-04-10T07:57:00.632Z,91.10
2018-04-10T08:00:03.949Z,91.20
2018-04-10T08:03:07.272Z,91.00
2018-04-10T08:06:10.601Z,90.90
2018-04-10T08:09:14.681Z,91.40
2018-04-10T08:12:18.008Z,91.40
2018-04-10T08:15:21.336Z,91.60
2018-04-10T08:18:24.660Z,91.00
2018-04-10T08:21:27.984Z,91.70
2018-04-10T08:24:31.294Z,91.50
2018-04-10T08:27:34.623Z,90.80
2018-04-10T08:30:37.932Z,90.90
2018-04-10T08:33:41.265Z,90.50
2018-04-10T08:36:44.577Z,90.30
2018-04-10T08:39:47.909Z,90.20
2018-04-10T08:42:51.221Z,90.40
2018-04-10T08:45:54.552Z,89.50
2018-04-10T08:48:57.864Z,90.00
2018-04-10T08:52:01.188Z,89.30
2018-04-10T08:55:04.518Z,90.50
2018-04-10T08:58:07.849Z,88.00
2018-04-10T09:01:11.177Z,87.60
2018-04-10T09:04:14.493Z,86.60
2018-04-10T09:07:17.837Z,88.20
2018-04-10T09:10:21.159Z,86.10
2018-04-10T09:13:24.488Z,85.80
2018-04-10T09:16:27.801Z,85.80
2018-04-10T09:19:31.138Z,86.40
2018-04-10T09:22:35.212Z,86.00
2018-04-10T09:25:38.553Z,86.00
2018-04-10T09:28:42.624Z,86.30
2018-04-10T09:31:45.953Z,86.10
2018-04-10T09:34:49.256Z,86.20
2018-04-10T09:37:53.345Z,88.10
2018-04-10T09:40:56.656Z,88.10
2018-04-10T09:43:59.984Z,87.30
2018-04-10T09:47:03.312Z,86.50
2018-04-10T09:50:06.640Z,87.30
2018-04-10T09:53:09.969Z,88.30
2018-04-10T09:56:14.033Z,89.60
2018-04-10T09:59:17.344Z,89.60
2018-04-10T10:02:21.610Z,90.50
2018-04-10T10:05:24.940Z,90.80
2018-04-10T10:08:28.263Z,90.80
2018-04-10T10:11:31.560Z,90.70
2018-04-10T10:14:34.878Z,90.90
2018-04-10T10:17:38.957Z,92.10
2018-04-10T10:20:42.270Z,92.10
2018-04-10T10:23:45.586Z,92.40
2018-04-10T10:26:49.645Z,92.00
2018-04-10T10:29:53.728Z,91.60
2018-04-10T10:32:57.073Z,91.60
2018-04-10T10:36:00.371Z,91.70
2018-04-10T10:39:03.677Z,91.80
2018-04-10T10:42:07.001Z,91.40
2018-04-10T10:45:11.065Z,91.50
2018-04-10T10:48:14.393Z,91.40
2018-04-10T10:51:17.688Z,90.70
2018-04-10T10:54:21.005Z,91.20
2018-04-10T10:57:25.081Z,91.50
2018-04-10T11:00:28.392Z,91.50
2018-04-10T11:03:31.718Z,91.50
2018-04-10T11:06:35.012Z,91.20
2018-04-10T11:09:39.141Z,91.70
2018-04-10T11:12:42.436Z,91.70
2018-04-10T11:15:45.732Z,92.20
2018-04-10T11:18:49.053Z,91.90
2018-04-10T11:21:52.368Z,91.10
2018-04-10T11:24:55.733Z,90.90
2018-04-10T11:27:59.028Z,91.00
2018-04-10T11:31:02.352Z,91.30
2018-04-10T11:34:05.672Z,90.90
2018-04-10T11:37:08.974Z,90.50
2018-04-10T11:40:12.293Z,91.60
2018-04-10T11:43:16.381Z,90.50
2018-04-10T11:46:19.724Z,90.40
2018-04-10T11:49:23.024Z,90.80
2018-04-10T11:52:26.345Z,90.60
2018-04-10T11:55:29.656Z,90.80
2018-04-10T11:58:32.976Z,90.60
2018-04-10T12:01:37.051Z,90.60
2018-04-10T12:04:40.372Z,90.50
2018-04-10T12:07:43.679Z,90.10
2018-04-10T12:10:46.997Z,90.40
2018-04-10T12:13:51.085Z,90.10
2018-04-10T12:16:54.396Z,90.10
2018-04-10T12:19:58.480Z,90.30
2018-04-10T12:23:01.797Z,90.30
2018-04-10T12:26:05.119Z,90.50
2018-04-10T12:29:08.421Z,90.00
2018-04-10T12:32:11.756Z,90.40
2018-04-10T12:35:15.056Z,89.50
2018-04-10T12:38:18.392Z,90.00
2018-04-10T12:41:21.688Z,90.30
2018-04-10T12:44:25.768Z,91.20
2018-04-10T12:47:29.068Z,91.20
2018-04-10T12:50:32.392Z,90.60
2018-04-10T12:53:36.460Z,91.20
2018-04-10T12:56:39.788Z,91.20
2018-04-10T12:59:43.085Z,91.10
2018-04-10T13:02:46.409Z,90.40
2018-04-10T13:05:49.708Z,90.80
2018-04-10T13:08:53.028Z,90.80
2018-04-10T13:11:56.324Z,90.20
2018-04-10T13:14:59.664Z,90.20
2018-04-10T13:18:02.964Z,90.30
2018-04-10T13:21:06.301Z,90.80
2018-04-10T13:24:09.606Z,90.50
2018-04-10T13:27:12.934Z,90.90
2018-04-10T13:30:16.247Z,91.60
2018-04-10T13:33:20.187Z,91.30
2018-04-10T13:36:24.262Z,91.90
2018-04-10T13:39:27.588Z,91.90
2018-04-10T13:42:31.657Z,91.90
2018-04-10T13:45:34.980Z,91.90
2018-04-10T13:48:38.305Z,91.70
2018-04-10T13:51:42.388Z,92.10
2018-04-10T13:54:45.708Z,92.00
2018-04-10T13:57:49.049Z,92.20
2018-04-10T14:00:52.397Z,92.50
2018-04-10T14:03:56.464Z,92.60
2018-04-10T14:06:59.784Z,92.60
2018-04-10T14:10:03.085Z,92.50
2018-04-10T14:13:06.410Z,92.70
2018-04-10T14:16:10.480Z,92.20
2018-04-10T14:19:13.802Z,92.20
2018-04-10T14:22:17.130Z,92.20
2018-04-10T14:25:20.449Z,92.20
2018-04-10T14:28:23.746Z,92.50
2018-04-10T14:31:27.065Z,92.50
2018-04-10T14:34:30.396Z,92.40
2018-04-10T14:37:34.460Z,92.60
2018-04-10T14:40:37.777Z,92.60
2018-04-10T14:43:41.077Z,92.80
2018-04-10T14:46:44.392Z,92.70
2018-04-10T14:49:47.699Z,93.20
2018-04-10T14:52:51.784Z,93.50
2018-04-10T14:55:55.104Z,93.50
2018-04-10T14:58:58.424Z,93.10
2018-04-10T15:02:01.725Z,93.20
2018-04-10T15:05:05.047Z,93.30
2018-04-10T15:08:08.377Z,93.30
2018-04-10T15:11:11.686Z,93.30
2018-04-10T15:14:15.773Z,93.50
2018-04-10T15:17:19.072Z,93.50
2018-04-10T15:20:22.388Z,93.20
2018-04-10T15:23:25.705Z,93.00
2018-04-10T15:26:29.801Z,93.20
2018-04-10T15:29:33.141Z,93.20
2018-04-10T15:32:36.449Z,93.10
2018-04-10T15:35:39.781Z,92.80
2018-04-10T15:38:43.082Z,92.80
2018-04-10T15:41:46.412Z,92.80
2018-04-10T15:44:49.716Z,92.70
2018-04-10T15:47:53.758Z,92.70
2018-04-10T15:50:57.060Z,92.50
2018-04-10T15:54:00.391Z,92.90
2018-04-10T15:57:04.462Z,92.70
2018-04-10T16:00:07.788Z,92.70
2018-04-10T16:03:11.128Z,92.70
2018-04-10T16:06:14.433Z,92.60
2018-04-10T16:09:17.773Z,92.90
2018-04-10T16:12:21.076Z,92.80
2018-04-10T16:15:24.398Z,92.40
2018-04-10T16:18:27.700Z,92.50
2018-04-10T16:21:31.021Z,92.40
2018-04-10T16:24:34.345Z,92.30
2018-04-10T16:27:37.685Z,92.20
2018-04-10T16:30:41.760Z,92.50
2018-04-10T16:33:45.076Z,92.50
2018-04-10T16:36:49.304Z,92.50
2018-04-10T16:39:52.679Z,92.60
2018-04-10T16:42:56.809Z,92.30
2018-04-10T16:46:01.082Z,92.60
2018-04-10T16:49:04.418Z,92.30
2018-04-10T16:52:07.753Z,92.30
2018-04-10T16:55:11.073Z,92.40
2018-04-10T16:58:14.389Z,92.30
2018-04-10T17:01:17.684Z,91.90
2018-04-10T17:04:20.997Z,92.40
2018-04-10T17:07:24.297Z,92.20
2018-04-10T17:10:27.609Z,92.30
2018-04-10T17:13:32.641Z,92.10
2018-04-10T17:16:36.863Z,91.70
2018-04-10T17:19:41.174Z,91.60
2018-04-10T17:22:44.483Z,91.60
2018-04-10T17:25:47.809Z,91.60
2018-04-10T17:28:51.169Z,91.60
2018-04-10T17:31:56.115Z,91.60
2018-04-10T17:35:00.185Z,91.30
2018-04-10T17:38:03.505Z,91.30
2018-04-10T17:41:06.837Z,91.30
2018-04-10T17:44:10.149Z,91.20
2018-04-10T17:47:13.481Z,91.30
2018-04-10T17:50:16.808Z,91.10
2018-04-10T17:53:20.892Z,91.50
2018-04-10T17:56:24.196Z,91.50
2018-04-10T17:59:27.530Z,91.40
2018-04-10T18:02:30.832Z,91.20
2018-04-10T18:05:34.148Z,91.40
2018-04-10T18:08:37.455Z,91.40
2018-04-10T18:11:40.777Z,91.40
2018-04-10T18:14:44.076Z,91.40
2018-04-10T18:17:47.392Z,91.40
2018-04-10T18:20:50.719Z,91.40
2018-04-10T18:23:54.028Z,91.60
2018-04-10T18:26:57.348Z,91.60
2018-04-10T18:30:00.689Z,91.60
2018-04-10T18:33:04.777Z,91.50
2018-04-10T18:36:08.134Z,91.50
2018-04-10T18:39:12.181Z,91.60
2018-04-10T18:42:15.484Z,91.60
2018-04-10T18:45:18.800Z,91.80
2018-04-10T18:48:22.164Z,91.80
2018-04-10T18:51:25.464Z,91.90
2018-04-10T18:54:28.797Z,91.90
2018-04-10T18:57:32.100Z,91.70
2018-04-10T19:00:35.416Z,91.70
2018-04-10T19:03:38.720Z,91.80
2018-04-10T19:06:42.045Z,91.80
2018-04-10T19:09:45.352Z,91.70
2018-04-10T19:12:48.680Z,91.80
2018-04-10T19:15:52.017Z,91.90
2018-04-10T19:18:55.320Z,91.90
2018-04-10T19:21:58.657Z,92.00
2018-04-10T19:25:02.729Z,92.00
2018-04-10T19:28:06.058Z,92.00
2018-04-10T19:31:10.137Z,92.10
2018-04-10T19:34:13.473Z,91.90
2018-04-10T19:37:17.563Z,92.10
2018-04-10T19:40:20.894Z,92.30
2018-04-10T19:43:24.229Z,92.00
2018-04-10T19:46:27.545Z,92.00
2018-04-10T19:49:30.865Z,91.90
2018-04-10T19:52:34.192Z,91.80
2018-04-10T19:55:37.533Z,91.50
2018-04-10T19:58:40.833Z,91.60
2018-04-10T20:01:44.156Z,91.90
2018-04-10T20:04:48.296Z,91.70
2018-04-10T20:07:51.568Z,91.60
2018-04-10T20:10:54.900Z,91.70
2018-04-10T20:13:58.210Z,91.90
2018-04-10T20:17:01.548Z,91.70
2018-04-10T20:20:04.853Z,91.70
2018-04-10T20:23:08.210Z,91.70
2018-04-10T20:26:11.521Z,91.50
2018-04-10T20:29:14.841Z,91.50
2018-04-10T20:32:18.953Z,91.40
2018-04-10T20:35:22.289Z,91.40
2018-04-10T20:38:25.585Z,91.70
2018-04-10T20:41:28.904Z,91.50
2018-04-10T20:44:32.217Z,91.50
2018-04-10T20:47:35.534Z,91.60
2018-04-10T20:50:38.868Z,91.70
2018-04-10T20:53:42.176Z,91.70
2018-04-10T20:56:45.505Z,91.60
2018-04-10T20:59:48.824Z,91.50
2018-04-10T21:02:52.153Z,91.60
2018-04-10T21:05:55.469Z,91.60
2018-04-10T21:08:58.808Z,91.70
2018-04-10T21:12:02.117Z,91.50
2018-04-10T21:15:05.473Z,91.50
2018-04-10T21:18:08.805Z,91.50
2018-04-10T21:21:12.126Z,91.50
2018-04-10T21:24:16.235Z,91.60
2018-04-10T21:27:20.333Z,91.70
2018-04-10T21:30:23.710Z,91.70
2018-04-10T21:33:27.005Z,91.80
2018-04-10T21:36:30.329Z,91.70
2018-04-10T21:39:33.645Z,91.70
2018-04-10T21:42:42.456Z,91.60
2018-04-10T21:45:46.545Z,91.60
2018-04-10T21:48:49.881Z,91.60
2018-04-10T21:51:53.199Z,91.60
2018-04-10T21:54:56.545Z,91.50
2018-04-10T21:57:59.919Z,91.60
2018-04-10T22:01:03.225Z,91.60
2018-04-10T22:04:06.555Z,91.60
2018-04-10T22:07:10.691Z,91.50
2018-04-10T22:10:14.017Z,91.60
2018-04-10T22:13:18.861Z,91.40
2018-04-10T22:16:22.221Z,91.50
2018-04-10T22:19:25.554Z,91.40
2018-04-10T22:22:28.899Z,91.40
2018-04-10T22:25:32.209Z,91.40
2018-04-10T22:28:35.545Z,91.20
2018-04-10T22:31:38.905Z,91.20
2018-04-10T22:34:42.203Z,91.20
2018-04-10T22:37:45.529Z,91.20
2018-04-10T22:40:48.853Z,91.30
2018-04-10T22:43:52.181Z,91.20
2018-04-10T22:46:55.501Z,91.00
2018-04-10T22:49:58.867Z,91.00
2018-04-10T22:53:02.172Z,91.00
2018-04-10T22:56:05.521Z,91.10
2018-04-10T22:59:09.585Z,90.90
2018-04-10T23:02:12.912Z,90.90
2018-04-10T23:05:16.236Z,91.10
2018-04-10T23:08:19.577Z,90.90
2018-04-10T23:11:22.893Z,91.00
2018-04-10T23:14:26.234Z,91.10
2018-04-10T23:17:29.542Z,91.00
2018-04-10T23:20:33.652Z,91.10
2018-04-10T23:23:36.981Z,91.10
2018-04-10T23:26:40.321Z,91.20
2018-04-10T23:29:43.625Z,91.30
2018-04-10T23:32:46.969Z,91.20
2018-04-10T23:35:50.297Z,91.30
2018-04-10T23:38:53.622Z,91.30
2018-04-10T23:41:56.957Z,91.30
2018-04-10T23:45:01.065Z,91.20
2018-04-10T23:48:04.378Z,91.20
2018-04-10T23:51:07.707Z,91.20
2018-04-10T23:54:11.056Z,91.20
2018-04-10T23:57:14.376Z,91.30
